sensor_id;sensor_type;location;lat;lon;timestamp;P1;durP1;ratioP1;P2;durP2;ratioP2
3217;SDS011;1621;49.702;8.618;2023-06-14T00:01:36;8.63;;;4.70;;
3217;SDS011;1621;49.702;8.618;2023-06-14T00:04:03;5.33;;;4.60;;
3217;SDS011;1621;49.702;8.618;2023-06-14T00:06:30;6.93;;;4.67;;
3217;SDS011;1621;49.702;8.618;2023-06-14T00:08:58;8.20;;;4.40;;
3217;SDS011;1621;49.702;8.618;2023-06-14T00:11:25;10.87;;;7.00;;
3217;SDS011;1621;49.702;8.618;2023-06-14T00:13:53;7.50;;;4.80;;
3217;SDS011;1621;49.702;8.618;2023-06-14T00:16:20;9.03;;;5.40;;
3217;SDS011;1621;49.702;8.618;2023-06-14T00:18:46;7.40;;;4.80;;
3217;SDS011;1621;49.702;8.618;2023-06-14T00:21:12;6.73;;;4.40;;
3217;SDS011;1621;49.702;8.618;2023-06-14T00:23:39;7.33;;;4.80;;
3217;SDS011;1621;49.702;8.618;2023-06-14T00:26:05;6.17;;;5.40;;
3217;SDS011;1621;49.702;8.618;2023-06-14T00:28:31;5.10;;;4.40;;
3217;SDS011;1621;49.702;8.618;2023-06-14T00:30:59;5.47;;;4.57;;
3217;SDS011;1621;49.702;8.618;2023-06-14T00:33:25;7.93;;;4.70;;
3217;SDS011;1621;49.702;8.618;2023-06-14T00:35:52;6.13;;;4.70;;
3217;SDS011;1621;49.702;8.618;2023-06-14T00:38:18;6.13;;;4.70;;
3217;SDS011;1621;49.702;8.618;2023-06-14T00:40:45;7.30;;;5.00;;
3217;SDS011;1621;49.702;8.618;2023-06-14T00:43:11;7.23;;;5.00;;
3217;SDS011;1621;49.702;8.618;2023-06-14T00:45:37;7.17;;;4.90;;
3217;SDS011;1621;49.702;8.618;2023-06-14T00:48:05;7.33;;;5.07;;
3217;SDS011;1621;49.702;8.618;2023-06-14T00:50:32;10.30;;;4.57;;
3217;SDS011;1621;49.702;8.618;2023-06-14T00:52:58;8.80;;;5.30;;
3217;SDS011;1621;49.702;8.618;2023-06-14T00:55:26;8.13;;;5.07;;
3217;SDS011;1621;49.702;8.618;2023-06-14T00:57:53;8.17;;;4.93;;
3217;SDS011;1621;49.702;8.618;2023-06-14T01:00:19;7.97;;;5.63;;
3217;SDS011;1621;49.702;8.618;2023-06-14T01:02:45;6.03;;;4.13;;
3217;SDS011;1621;49.702;8.618;2023-06-14T01:05:13;6.53;;;4.70;;
3217;SDS011;1621;49.702;8.618;2023-06-14T01:07:43;6.83;;;4.67;;
3217;SDS011;1621;49.702;8.618;2023-06-14T01:10:18;6.13;;;5.00;;
3217;SDS011;1621;49.702;8.618;2023-06-14T01:12:48;6.13;;;5.10;;
3217;SDS011;1621;49.702;8.618;2023-06-14T01:15:17;9.17;;;4.80;;
3217;SDS011;1621;49.702;8.618;2023-06-14T01:17:43;10.80;;;5.20;;
3217;SDS011;1621;49.702;8.618;2023-06-14T01:20:11;8.43;;;5.33;;
3217;SDS011;1621;49.702;8.618;2023-06-14T01:22:45;7.20;;;4.40;;
3217;SDS011;1621;49.702;8.618;2023-06-14T01:25:11;5.60;;;4.70;;
3217;SDS011;1621;49.702;8.618;2023-06-14T01:27:39;7.23;;;5.50;;
3217;SDS011;1621;49.702;8.618;2023-06-14T01:30:05;6.53;;;4.90;;
3217;SDS011;1621;49.702;8.618;2023-06-14T01:32:32;7.80;;;5.00;;
3217;SDS011;1621;49.702;8.618;2023-06-14T01:34:58;4.67;;;4.20;;
3217;SDS011;1621;49.702;8.618;2023-06-14T01:37:25;8.60;;;4.73;;
3217;SDS011;1621;49.702;8.618;2023-06-14T01:39:53;6.57;;;4.83;;
3217;SDS011;1621;49.702;8.618;2023-06-14T01:42:19;6.70;;;4.70;;
3217;SDS011;1621;49.702;8.618;2023-06-14T01:44:45;8.80;;;4.70;;
3217;SDS011;1621;49.702;8.618;2023-06-14T01:47:12;7.83;;;4.53;;
3217;SDS011;1621;49.702;8.618;2023-06-14T01:49:39;8.17;;;5.43;;
3217;SDS011;1621;49.702;8.618;2023-06-14T01:52:05;9.70;;;4.87;;
3217;SDS011;1621;49.702;8.618;2023-06-14T01:54:34;12.53;;;4.57;;
3217;SDS011;1621;49.702;8.618;2023-06-14T01:57:04;6.20;;;4.80;;
3217;SDS011;1621;49.702;8.618;2023-06-14T01:59:32;9.27;;;4.80;;
3217;SDS011;1621;49.702;8.618;2023-06-14T02:02:00;8.23;;;4.70;;
3217;SDS011;1621;49.702;8.618;2023-06-14T02:04:26;12.53;;;4.70;;
3217;SDS011;1621;49.702;8.618;2023-06-14T02:06:52;7.33;;;5.10;;
3217;SDS011;1621;49.702;8.618;2023-06-14T02:09:18;6.57;;;4.47;;
3217;SDS011;1621;49.702;8.618;2023-06-14T02:11:45;6.73;;;4.40;;
3217;SDS011;1621;49.702;8.618;2023-06-14T02:14:13;13.93;;;4.73;;
3217;SDS011;1621;49.702;8.618;2023-06-14T02:16:39;8.30;;;4.80;;
3217;SDS011;1621;49.702;8.618;2023-06-14T02:19:13;9.00;;;4.87;;
3217;SDS011;1621;49.702;8.618;2023-06-14T02:21:39;7.43;;;5.00;;
3217;SDS011;1621;49.702;8.618;2023-06-14T02:24:06;7.13;;;4.90;;
3217;SDS011;1621;49.702;8.618;2023-06-14T02:26:32;7.53;;;5.30;;
3217;SDS011;1621;49.702;8.618;2023-06-14T02:28:59;9.03;;;5.17;;
3217;SDS011;1621;49.702;8.618;2023-06-14T02:31:27;5.30;;;4.20;;
3217;SDS011;1621;49.702;8.618;2023-06-14T02:33:54;6.33;;;4.47;;
3217;SDS011;1621;49.702;8.618;2023-06-14T02:36:20;6.57;;;4.60;;
3217;SDS011;1621;49.702;8.618;2023-06-14T02:38:46;7.70;;;4.40;;
3217;SDS011;1621;49.702;8.618;2023-06-14T02:41:12;6.80;;;4.53;;
3217;SDS011;1621;49.702;8.618;2023-06-14T02:43:39;7.03;;;4.90;;
3217;SDS011;1621;49.702;8.618;2023-06-14T02:46:05;6.53;;;5.20;;
3217;SDS011;1621;49.702;8.618;2023-06-14T02:48:33;5.77;;;4.60;;
3217;SDS011;1621;49.702;8.618;2023-06-14T02:50:59;10.27;;;5.40;;
3217;SDS011;1621;49.702;8.618;2023-06-14T02:53:26;12.73;;;5.47;;
3217;SDS011;1621;49.702;8.618;2023-06-14T02:55:52;9.13;;;5.37;;
3217;SDS011;1621;49.702;8.618;2023-06-14T02:58:20;5.23;;;4.57;;
3217;SDS011;1621;49.702;8.618;2023-06-14T03:00:46;8.13;;;5.47;;
3217;SDS011;1621;49.702;8.618;2023-06-14T03:03:13;6.23;;;4.87;;
3217;SDS011;1621;49.702;8.618;2023-06-14T03:05:43;10.27;;;5.40;;
3217;SDS011;1621;49.702;8.618;2023-06-14T03:08:11;8.93;;;6.00;;
3217;SDS011;1621;49.702;8.618;2023-06-14T03:10:41;6.63;;;5.70;;
3217;SDS011;1621;49.702;8.618;2023-06-14T03:13:08;14.40;;;7.40;;
3217;SDS011;1621;49.702;8.618;2023-06-14T03:15:35;24.20;;;7.17;;
3217;SDS011;1621;49.702;8.618;2023-06-14T03:18:02;22.60;;;7.77;;
3217;SDS011;1621;49.702;8.618;2023-06-14T03:20:28;41.63;;;9.60;;
3217;SDS011;1621;49.702;8.618;2023-06-14T03:22:59;24.30;;;8.77;;
3217;SDS011;1621;49.702;8.618;2023-06-14T03:25:25;26.47;;;9.10;;
3217;SDS011;1621;49.702;8.618;2023-06-14T03:27:54;15.00;;;7.37;;
3217;SDS011;1621;49.702;8.618;2023-06-14T03:30:20;12.97;;;6.67;;
3217;SDS011;1621;49.702;8.618;2023-06-14T03:32:46;11.00;;;6.80;;
3217;SDS011;1621;49.702;8.618;2023-06-14T03:35:13;18.13;;;7.63;;
3217;SDS011;1621;49.702;8.618;2023-06-14T03:37:42;13.33;;;7.83;;
3217;SDS011;1621;49.702;8.618;2023-06-14T03:40:10;16.50;;;6.93;;
3217;SDS011;1621;49.702;8.618;2023-06-14T03:42:36;7.70;;;6.10;;
3217;SDS011;1621;49.702;8.618;2023-06-14T03:45:03;8.30;;;5.50;;
3217;SDS011;1621;49.702;8.618;2023-06-14T03:47:29;8.20;;;5.93;;
3217;SDS011;1621;49.702;8.618;2023-06-14T03:49:55;10.83;;;5.77;;
3217;SDS011;1621;49.702;8.618;2023-06-14T03:52:22;8.40;;;5.80;;
3217;SDS011;1621;49.702;8.618;2023-06-14T03:54:48;7.27;;;5.20;;
3217;SDS011;1621;49.702;8.618;2023-06-14T03:57:16;5.67;;;4.57;;
3217;SDS011;1621;49.702;8.618;2023-06-14T03:59:42;15.90;;;5.63;;
3217;SDS011;1621;49.702;8.618;2023-06-14T04:02:08;7.97;;;4.50;;
3217;SDS011;1621;49.702;8.618;2023-06-14T04:04:35;8.20;;;5.50;;
3217;SDS011;1621;49.702;8.618;2023-06-14T04:07:01;13.87;;;6.07;;
3217;SDS011;1621;49.702;8.618;2023-06-14T04:09:28;8.07;;;5.40;;
3217;SDS011;1621;49.702;8.618;2023-06-14T04:11:55;9.70;;;5.07;;
3217;SDS011;1621;49.702;8.618;2023-06-14T04:14:22;11.07;;;4.90;;
3217;SDS011;1621;49.702;8.618;2023-06-14T04:16:49;7.20;;;5.20;;
3217;SDS011;1621;49.702;8.618;2023-06-14T04:19:15;7.50;;;4.93;;
3217;SDS011;1621;49.702;8.618;2023-06-14T04:21:42;9.50;;;5.00;;
3217;SDS011;1621;49.702;8.618;2023-06-14T04:24:08;16.00;;;5.17;;
3217;SDS011;1621;49.702;8.618;2023-06-14T04:26:38;7.60;;;4.83;;
3217;SDS011;1621;49.702;8.618;2023-06-14T04:29:04;11.70;;;4.97;;
3217;SDS011;1621;49.702;8.618;2023-06-14T04:31:32;6.20;;;5.00;;
3217;SDS011;1621;49.702;8.618;2023-06-14T04:33:59;6.67;;;4.60;;
3217;SDS011;1621;49.702;8.618;2023-06-14T04:36:25;8.33;;;5.90;;
3217;SDS011;1621;49.702;8.618;2023-06-14T04:38:53;8.03;;;5.23;;
3217;SDS011;1621;49.702;8.618;2023-06-14T04:41:20;8.90;;;4.80;;
3217;SDS011;1621;49.702;8.618;2023-06-14T04:43:47;7.37;;;4.87;;
3217;SDS011;1621;49.702;8.618;2023-06-14T04:46:14;6.03;;;4.83;;
3217;SDS011;1621;49.702;8.618;2023-06-14T04:48:41;6.63;;;5.10;;
3217;SDS011;1621;49.702;8.618;2023-06-14T04:51:09;6.50;;;4.97;;
3217;SDS011;1621;49.702;8.618;2023-06-14T04:53:35;11.87;;;5.70;;
3217;SDS011;1621;49.702;8.618;2023-06-14T04:56:01;7.77;;;5.30;;
3217;SDS011;1621;49.702;8.618;2023-06-14T04:58:29;6.30;;;4.60;;
3217;SDS011;1621;49.702;8.618;2023-06-14T05:00:55;8.67;;;5.60;;
3217;SDS011;1621;49.702;8.618;2023-06-14T05:03:22;6.80;;;5.10;;
3217;SDS011;1621;49.702;8.618;2023-06-14T05:05:50;10.70;;;5.17;;
3217;SDS011;1621;49.702;8.618;2023-06-14T05:08:18;6.30;;;5.30;;
3217;SDS011;1621;49.702;8.618;2023-06-14T05:10:45;7.17;;;5.70;;
3217;SDS011;1621;49.702;8.618;2023-06-14T05:13:11;9.20;;;4.67;;
3217;SDS011;1621;49.702;8.618;2023-06-14T05:15:37;10.40;;;5.60;;
3217;SDS011;1621;49.702;8.618;2023-06-14T05:18:03;7.10;;;5.47;;
3217;SDS011;1621;49.702;8.618;2023-06-14T05:20:30;8.50;;;4.60;;
3217;SDS011;1621;49.702;8.618;2023-06-14T05:22:58;5.90;;;5.03;;
3217;SDS011;1621;49.702;8.618;2023-06-14T05:25:24;6.23;;;5.20;;
3217;SDS011;1621;49.702;8.618;2023-06-14T05:27:50;13.10;;;4.90;;
3217;SDS011;1621;49.702;8.618;2023-06-14T05:30:17;6.90;;;5.30;;
3217;SDS011;1621;49.702;8.618;2023-06-14T05:32:43;8.37;;;5.63;;
3217;SDS011;1621;49.702;8.618;2023-06-14T05:35:09;12.10;;;4.90;;
3217;SDS011;1621;49.702;8.618;2023-06-14T05:37:36;7.80;;;5.10;;
3217;SDS011;1621;49.702;8.618;2023-06-14T05:40:04;7.97;;;5.80;;
3217;SDS011;1621;49.702;8.618;2023-06-14T05:42:31;6.30;;;4.40;;
3217;SDS011;1621;49.702;8.618;2023-06-14T05:44:57;8.00;;;5.60;;
3217;SDS011;1621;49.702;8.618;2023-06-14T05:47:24;6.37;;;4.60;;
3217;SDS011;1621;49.702;8.618;2023-06-14T05:49:50;10.00;;;6.00;;
3217;SDS011;1621;49.702;8.618;2023-06-14T05:52:17;6.47;;;4.80;;
3217;SDS011;1621;49.702;8.618;2023-06-14T05:54:43;7.50;;;5.37;;
3217;SDS011;1621;49.702;8.618;2023-06-14T05:57:11;9.13;;;5.30;;
3217;SDS011;1621;49.702;8.618;2023-06-14T05:59:37;15.33;;;4.70;;
3217;SDS011;1621;49.702;8.618;2023-06-14T06:02:03;9.47;;;5.00;;
3217;SDS011;1621;49.702;8.618;2023-06-14T06:04:30;15.90;;;5.47;;
3217;SDS011;1621;49.702;8.618;2023-06-14T06:06:56;7.83;;;5.30;;
3217;SDS011;1621;49.702;8.618;2023-06-14T06:09:22;9.30;;;5.13;;
3217;SDS011;1621;49.702;8.618;2023-06-14T06:11:48;6.27;;;5.00;;
3217;SDS011;1621;49.702;8.618;2023-06-14T06:14:16;9.97;;;5.27;;
3217;SDS011;1621;49.702;8.618;2023-06-14T06:16:42;5.70;;;4.47;;
3217;SDS011;1621;49.702;8.618;2023-06-14T06:19:09;7.20;;;4.67;;
3217;SDS011;1621;49.702;8.618;2023-06-14T06:21:35;6.60;;;5.33;;
3217;SDS011;1621;49.702;8.618;2023-06-14T06:24:01;6.43;;;4.73;;
3217;SDS011;1621;49.702;8.618;2023-06-14T06:26:30;7.60;;;5.30;;
3217;SDS011;1621;49.702;8.618;2023-06-14T06:28:57;6.70;;;4.80;;
3217;SDS011;1621;49.702;8.618;2023-06-14T06:31:24;8.33;;;5.57;;
3217;SDS011;1621;49.702;8.618;2023-06-14T06:33:52;5.87;;;4.70;;
3217;SDS011;1621;49.702;8.618;2023-06-14T06:36:19;9.00;;;4.70;;
3217;SDS011;1621;49.702;8.618;2023-06-14T06:38:46;6.67;;;4.50;;
3217;SDS011;1621;49.702;8.618;2023-06-14T06:41:13;8.50;;;4.73;;
3217;SDS011;1621;49.702;8.618;2023-06-14T06:43:39;6.87;;;5.10;;
3217;SDS011;1621;49.702;8.618;2023-06-14T06:46:05;6.90;;;4.90;;
3217;SDS011;1621;49.702;8.618;2023-06-14T06:48:33;6.97;;;4.73;;
3217;SDS011;1621;49.702;8.618;2023-06-14T06:51:00;7.23;;;4.63;;
3217;SDS011;1621;49.702;8.618;2023-06-14T06:53:26;9.30;;;4.70;;
3217;SDS011;1621;49.702;8.618;2023-06-14T06:55:52;7.93;;;5.30;;
3217;SDS011;1621;49.702;8.618;2023-06-14T06:58:18;6.57;;;4.63;;
3217;SDS011;1621;49.702;8.618;2023-06-14T07:00:47;7.33;;;4.60;;
3217;SDS011;1621;49.702;8.618;2023-06-14T07:03:13;8.27;;;4.37;;
3217;SDS011;1621;49.702;8.618;2023-06-14T07:05:41;7.40;;;5.20;;
3217;SDS011;1621;49.702;8.618;2023-06-14T07:08:07;8.23;;;4.80;;
3217;SDS011;1621;49.702;8.618;2023-06-14T07:10:33;5.87;;;4.30;;
3217;SDS011;1621;49.702;8.618;2023-06-14T07:13:00;7.47;;;5.00;;
3217;SDS011;1621;49.702;8.618;2023-06-14T07:15:26;8.37;;;5.03;;
3217;SDS011;1621;49.702;8.618;2023-06-14T07:17:52;7.83;;;5.00;;
3217;SDS011;1621;49.702;8.618;2023-06-14T07:20:18;7.60;;;4.97;;
3217;SDS011;1621;49.702;8.618;2023-06-14T07:22:48;7.03;;;4.70;;
3217;SDS011;1621;49.702;8.618;2023-06-14T07:25:14;9.60;;;4.70;;
3217;SDS011;1621;49.702;8.618;2023-06-14T07:27:41;6.83;;;4.70;;
3217;SDS011;1621;49.702;8.618;2023-06-14T07:30:07;9.80;;;4.93;;
3217;SDS011;1621;49.702;8.618;2023-06-14T07:32:34;16.17;;;4.60;;
3217;SDS011;1621;49.702;8.618;2023-06-14T07:35:00;10.40;;;5.40;;
3217;SDS011;1621;49.702;8.618;2023-06-14T07:37:26;6.33;;;5.00;;
3217;SDS011;1621;49.702;8.618;2023-06-14T07:39:54;9.53;;;5.17;;
3217;SDS011;1621;49.702;8.618;2023-06-14T07:42:20;6.77;;;4.73;;
3217;SDS011;1621;49.702;8.618;2023-06-14T07:44:47;8.10;;;4.47;;
3217;SDS011;1621;49.702;8.618;2023-06-14T07:47:13;6.90;;;5.27;;
3217;SDS011;1621;49.702;8.618;2023-06-14T07:49:39;10.53;;;5.40;;
3217;SDS011;1621;49.702;8.618;2023-06-14T07:52:06;6.37;;;4.40;;
3217;SDS011;1621;49.702;8.618;2023-06-14T07:54:32;9.87;;;4.70;;
3217;SDS011;1621;49.702;8.618;2023-06-14T07:57:00;9.03;;;5.27;;
3217;SDS011;1621;49.702;8.618;2023-06-14T07:59:26;6.33;;;4.90;;
3217;SDS011;1621;49.702;8.618;2023-06-14T08:01:52;9.30;;;5.27;;
3217;SDS011;1621;49.702;8.618;2023-06-14T08:04:19;10.33;;;4.40;;
3217;SDS011;1621;49.702;8.618;2023-06-14T08:06:45;8.73;;;5.10;;
3217;SDS011;1621;49.702;8.618;2023-06-14T08:09:13;7.53;;;4.57;;
3217;SDS011;1621;49.702;8.618;2023-06-14T08:11:39;7.60;;;5.30;;
3217;SDS011;1621;49.702;8.618;2023-06-14T08:14:07;6.70;;;4.63;;
3217;SDS011;1621;49.702;8.618;2023-06-14T08:16:34;7.03;;;5.07;;
3217;SDS011;1621;49.702;8.618;2023-06-14T08:19:00;6.20;;;4.50;;
3217;SDS011;1621;49.702;8.618;2023-06-14T08:21:26;4.93;;;3.80;;
3217;SDS011;1621;49.702;8.618;2023-06-14T08:23:54;6.40;;;4.67;;
3217;SDS011;1621;49.702;8.618;2023-06-14T08:26:20;7.80;;;4.73;;
3217;SDS011;1621;49.702;8.618;2023-06-14T08:28:46;6.43;;;4.53;;
3217;SDS011;1621;49.702;8.618;2023-06-14T08:31:14;7.40;;;4.10;;
3217;SDS011;1621;49.702;8.618;2023-06-14T08:33:40;6.40;;;4.40;;
3217;SDS011;1621;49.702;8.618;2023-06-14T08:36:08;4.97;;;3.63;;
3217;SDS011;1621;49.702;8.618;2023-06-14T08:38:35;7.50;;;4.77;;
3217;SDS011;1621;49.702;8.618;2023-06-14T08:41:02;8.80;;;4.23;;
3217;SDS011;1621;49.702;8.618;2023-06-14T08:43:30;7.87;;;4.40;;
3217;SDS011;1621;49.702;8.618;2023-06-14T08:45:58;6.83;;;4.30;;
3217;SDS011;1621;49.702;8.618;2023-06-14T08:48:27;10.27;;;3.80;;
3217;SDS011;1621;49.702;8.618;2023-06-14T08:50:53;5.00;;;3.73;;
3217;SDS011;1621;49.702;8.618;2023-06-14T08:53:27;5.37;;;3.43;;
3217;SDS011;1621;49.702;8.618;2023-06-14T08:55:54;5.57;;;3.70;;
3217;SDS011;1621;49.702;8.618;2023-06-14T08:58:20;8.13;;;4.00;;
3217;SDS011;1621;49.702;8.618;2023-06-14T09:00:49;3.93;;;3.13;;
3217;SDS011;1621;49.702;8.618;2023-06-14T09:03:17;4.13;;;3.20;;
3217;SDS011;1621;49.702;8.618;2023-06-14T09:05:47;6.13;;;3.90;;
3217;SDS011;1621;49.702;8.618;2023-06-14T09:08:13;4.97;;;3.33;;
3217;SDS011;1621;49.702;8.618;2023-06-14T09:10:39;5.10;;;3.93;;
3217;SDS011;1621;49.702;8.618;2023-06-14T09:13:06;6.50;;;3.93;;
3217;SDS011;1621;49.702;8.618;2023-06-14T09:15:32;6.80;;;3.20;;
3217;SDS011;1621;49.702;8.618;2023-06-14T09:18:00;6.70;;;3.60;;
3217;SDS011;1621;49.702;8.618;2023-06-14T09:20:28;12.03;;;4.33;;
3217;SDS011;1621;49.702;8.618;2023-06-14T09:22:56;5.60;;;3.80;;
3217;SDS011;1621;49.702;8.618;2023-06-14T09:25:22;4.10;;;3.33;;
3217;SDS011;1621;49.702;8.618;2023-06-14T09:27:51;5.13;;;3.40;;
3217;SDS011;1621;49.702;8.618;2023-06-14T09:30:19;4.30;;;3.33;;
3217;SDS011;1621;49.702;8.618;2023-06-14T09:32:45;5.17;;;3.80;;
3217;SDS011;1621;49.702;8.618;2023-06-14T09:35:12;4.70;;;4.00;;
3217;SDS011;1621;49.702;8.618;2023-06-14T09:37:38;4.90;;;3.13;;
3217;SDS011;1621;49.702;8.618;2023-06-14T09:40:06;7.03;;;3.57;;
3217;SDS011;1621;49.702;8.618;2023-06-14T09:42:33;4.23;;;3.10;;
3217;SDS011;1621;49.702;8.618;2023-06-14T09:45:00;5.57;;;3.80;;
3217;SDS011;1621;49.702;8.618;2023-06-14T09:47:28;6.00;;;3.50;;
3217;SDS011;1621;49.702;8.618;2023-06-14T09:49:54;3.80;;;2.90;;
3217;SDS011;1621;49.702;8.618;2023-06-14T09:52:21;3.90;;;2.67;;
3217;SDS011;1621;49.702;8.618;2023-06-14T09:54:48;4.70;;;3.30;;
3217;SDS011;1621;49.702;8.618;2023-06-14T09:57:20;4.83;;;3.03;;
3217;SDS011;1621;49.702;8.618;2023-06-14T09:59:47;9.43;;;3.90;;
3217;SDS011;1621;49.702;8.618;2023-06-14T10:02:17;5.10;;;3.10;;
3217;SDS011;1621;49.702;8.618;2023-06-14T10:04:46;5.53;;;2.97;;
3217;SDS011;1621;49.702;8.618;2023-06-14T10:07:13;5.30;;;3.23;;
3217;SDS011;1621;49.702;8.618;2023-06-14T10:09:40;7.23;;;3.17;;
3217;SDS011;1621;49.702;8.618;2023-06-14T10:12:09;5.53;;;2.90;;
3217;SDS011;1621;49.702;8.618;2023-06-14T10:14:37;3.53;;;2.97;;
3217;SDS011;1621;49.702;8.618;2023-06-14T10:17:06;7.10;;;3.23;;
3217;SDS011;1621;49.702;8.618;2023-06-14T10:19:34;3.77;;;2.87;;
3217;SDS011;1621;49.702;8.618;2023-06-14T10:22:04;5.53;;;3.20;;
3217;SDS011;1621;49.702;8.618;2023-06-14T10:24:32;6.07;;;3.17;;
3217;SDS011;1621;49.702;8.618;2023-06-14T10:26:59;5.20;;;3.03;;
3217;SDS011;1621;49.702;8.618;2023-06-14T10:29:26;4.20;;;3.70;;
3217;SDS011;1621;49.702;8.618;2023-06-14T10:31:58;5.80;;;3.27;;
3217;SDS011;1621;49.702;8.618;2023-06-14T10:34:25;4.93;;;3.20;;
3217;SDS011;1621;49.702;8.618;2023-06-14T10:37:02;5.00;;;3.53;;
3217;SDS011;1621;49.702;8.618;2023-06-14T10:39:29;7.50;;;3.53;;
3217;SDS011;1621;49.702;8.618;2023-06-14T10:41:55;3.90;;;3.40;;
3217;SDS011;1621;49.702;8.618;2023-06-14T10:44:32;4.50;;;3.40;;
3217;SDS011;1621;49.702;8.618;2023-06-14T10:47:00;4.70;;;3.63;;
3217;SDS011;1621;49.702;8.618;2023-06-14T10:49:36;6.20;;;3.70;;
3217;SDS011;1621;49.702;8.618;2023-06-14T10:52:06;8.13;;;3.73;;
3217;SDS011;1621;49.702;8.618;2023-06-14T10:54:34;6.37;;;3.80;;
3217;SDS011;1621;49.702;8.618;2023-06-14T10:57:00;8.43;;;3.73;;
3217;SDS011;1621;49.702;8.618;2023-06-14T10:59:27;6.67;;;3.50;;
3217;SDS011;1621;49.702;8.618;2023-06-14T11:01:54;8.90;;;3.87;;
3217;SDS011;1621;49.702;8.618;2023-06-14T11:04:26;4.30;;;3.70;;
3217;SDS011;1621;49.702;8.618;2023-06-14T11:06:55;6.10;;;3.93;;
3217;SDS011;1621;49.702;8.618;2023-06-14T11:09:38;7.50;;;4.07;;
3217;SDS011;1621;49.702;8.618;2023-06-14T11:12:09;3.50;;;3.00;;
3217;SDS011;1621;49.702;8.618;2023-06-14T11:14:36;9.50;;;3.57;;
3217;SDS011;1621;49.702;8.618;2023-06-14T11:17:02;4.50;;;3.40;;
3217;SDS011;1621;49.702;8.618;2023-06-14T11:19:30;7.13;;;3.97;;
3217;SDS011;1621;49.702;8.618;2023-06-14T11:21:56;7.60;;;3.77;;
3217;SDS011;1621;49.702;8.618;2023-06-14T11:24:23;4.43;;;3.33;;
3217;SDS011;1621;49.702;8.618;2023-06-14T11:26:49;3.90;;;2.90;;
3217;SDS011;1621;49.702;8.618;2023-06-14T11:29:16;3.73;;;3.23;;
3217;SDS011;1621;49.702;8.618;2023-06-14T11:31:42;5.90;;;3.53;;
3217;SDS011;1621;49.702;8.618;2023-06-14T11:34:09;5.67;;;2.83;;
3217;SDS011;1621;49.702;8.618;2023-06-14T11:36:37;5.00;;;3.43;;
3217;SDS011;1621;49.702;8.618;2023-06-14T11:39:04;6.47;;;3.30;;
3217;SDS011;1621;49.702;8.618;2023-06-14T11:41:32;12.30;;;3.57;;
3217;SDS011;1621;49.702;8.618;2023-06-14T11:43:59;7.37;;;3.07;;
3217;SDS011;1621;49.702;8.618;2023-06-14T11:46:26;6.00;;;3.07;;
3217;SDS011;1621;49.702;8.618;2023-06-14T11:48:52;4.47;;;3.20;;
3217;SDS011;1621;49.702;8.618;2023-06-14T11:51:18;6.73;;;3.53;;
3217;SDS011;1621;49.702;8.618;2023-06-14T11:53:46;4.60;;;2.87;;
3217;SDS011;1621;49.702;8.618;2023-06-14T11:56:12;3.60;;;2.87;;
3217;SDS011;1621;49.702;8.618;2023-06-14T11:58:39;4.00;;;2.77;;
3217;SDS011;1621;49.702;8.618;2023-06-14T12:01:06;5.20;;;3.10;;
3217;SDS011;1621;49.702;8.618;2023-06-14T12:03:32;4.90;;;3.10;;
3217;SDS011;1621;49.702;8.618;2023-06-14T12:06:04;3.83;;;3.07;;
3217;SDS011;1621;49.702;8.618;2023-06-14T12:08:34;5.27;;;3.20;;
3217;SDS011;1621;49.702;8.618;2023-06-14T12:11:05;3.20;;;2.90;;
3217;SDS011;1621;49.702;8.618;2023-06-14T12:13:33;3.33;;;2.90;;
3217;SDS011;1621;49.702;8.618;2023-06-14T12:15:59;4.53;;;3.10;;
3217;SDS011;1621;49.702;8.618;2023-06-14T12:18:33;6.63;;;3.00;;
3217;SDS011;1621;49.702;8.618;2023-06-14T12:21:00;6.80;;;2.80;;
3217;SDS011;1621;49.702;8.618;2023-06-14T12:23:29;7.20;;;3.10;;
3217;SDS011;1621;49.702;8.618;2023-06-14T12:26:05;9.20;;;2.93;;
3217;SDS011;1621;49.702;8.618;2023-06-14T12:28:31;4.77;;;2.60;;
3217;SDS011;1621;49.702;8.618;2023-06-14T12:30:58;6.60;;;2.90;;
3217;SDS011;1621;49.702;8.618;2023-06-14T12:33:24;3.47;;;3.00;;
3217;SDS011;1621;49.702;8.618;2023-06-14T12:35:51;4.07;;;2.80;;
3217;SDS011;1621;49.702;8.618;2023-06-14T12:38:17;3.00;;;2.50;;
3217;SDS011;1621;49.702;8.618;2023-06-14T12:40:43;4.80;;;3.20;;
3217;SDS011;1621;49.702;8.618;2023-06-14T12:43:11;6.33;;;3.13;;
3217;SDS011;1621;49.702;8.618;2023-06-14T12:45:37;4.00;;;2.83;;
3217;SDS011;1621;49.702;8.618;2023-06-14T12:48:04;4.00;;;3.10;;
3217;SDS011;1621;49.702;8.618;2023-06-14T12:50:30;7.77;;;3.00;;
3217;SDS011;1621;49.702;8.618;2023-06-14T12:52:56;3.83;;;3.07;;
3217;SDS011;1621;49.702;8.618;2023-06-14T12:55:23;3.20;;;2.50;;
3217;SDS011;1621;49.702;8.618;2023-06-14T12:57:49;4.00;;;2.70;;
3217;SDS011;1621;49.702;8.618;2023-06-14T13:00:18;3.30;;;2.50;;
3217;SDS011;1621;49.702;8.618;2023-06-14T13:02:45;3.60;;;2.93;;
3217;SDS011;1621;49.702;8.618;2023-06-14T13:05:11;3.60;;;2.80;;
3217;SDS011;1621;49.702;8.618;2023-06-14T13:07:38;4.40;;;3.07;;
3217;SDS011;1621;49.702;8.618;2023-06-14T13:10:04;5.47;;;3.03;;
3217;SDS011;1621;49.702;8.618;2023-06-14T13:12:30;3.47;;;2.37;;
3217;SDS011;1621;49.702;8.618;2023-06-14T13:14:57;4.23;;;2.80;;
3217;SDS011;1621;49.702;8.618;2023-06-14T13:17:24;3.93;;;2.57;;
3217;SDS011;1621;49.702;8.618;2023-06-14T13:19:50;5.60;;;3.00;;
3217;SDS011;1621;49.702;8.618;2023-06-14T13:22:17;13.97;;;2.47;;
3217;SDS011;1621;49.702;8.618;2023-06-14T13:24:43;3.40;;;2.80;;
3217;SDS011;1621;49.702;8.618;2023-06-14T13:27:09;5.77;;;2.80;;
3217;SDS011;1621;49.702;8.618;2023-06-14T13:29:36;2.70;;;2.17;;
3217;SDS011;1621;49.702;8.618;2023-06-14T13:32:02;4.50;;;3.00;;
3217;SDS011;1621;49.702;8.618;2023-06-14T13:34:30;5.53;;;2.57;;
3217;SDS011;1621;49.702;8.618;2023-06-14T13:36:56;3.83;;;2.93;;
3217;SDS011;1621;49.702;8.618;2023-06-14T13:39:23;4.60;;;3.30;;
3217;SDS011;1621;49.702;8.618;2023-06-14T13:41:50;3.20;;;2.70;;
3217;SDS011;1621;49.702;8.618;2023-06-14T13:44:16;5.80;;;2.90;;
3217;SDS011;1621;49.702;8.618;2023-06-14T13:46:46;5.27;;;3.00;;
3217;SDS011;1621;49.702;8.618;2023-06-14T13:49:12;6.37;;;3.00;;
3217;SDS011;1621;49.702;8.618;2023-06-14T13:51:40;3.90;;;2.50;;
3217;SDS011;1621;49.702;8.618;2023-06-14T13:54:06;5.63;;;2.50;;
3217;SDS011;1621;49.702;8.618;2023-06-14T13:56:32;6.53;;;2.67;;
3217;SDS011;1621;49.702;8.618;2023-06-14T13:58:58;6.60;;;3.10;;
3217;SDS011;1621;49.702;8.618;2023-06-14T14:01:25;3.70;;;2.80;;
3217;SDS011;1621;49.702;8.618;2023-06-14T14:03:53;6.70;;;3.00;;
3217;SDS011;1621;49.702;8.618;2023-06-14T14:06:20;3.80;;;2.90;;
3217;SDS011;1621;49.702;8.618;2023-06-14T14:08:47;4.10;;;2.70;;
3217;SDS011;1621;49.702;8.618;2023-06-14T14:11:14;6.83;;;2.77;;
3217;SDS011;1621;49.702;8.618;2023-06-14T14:13:41;3.40;;;2.70;;
3217;SDS011;1621;49.702;8.618;2023-06-14T14:16:07;3.77;;;3.03;;
3217;SDS011;1621;49.702;8.618;2023-06-14T14:18:35;4.27;;;2.83;;
3217;SDS011;1621;49.702;8.618;2023-06-14T14:21:02;3.40;;;2.60;;
3217;SDS011;1621;49.702;8.618;2023-06-14T14:23:28;7.10;;;3.93;;
3217;SDS011;1621;49.702;8.618;2023-06-14T14:25:56;4.80;;;2.90;;
3217;SDS011;1621;49.702;8.618;2023-06-14T14:28:22;3.63;;;2.80;;
3217;SDS011;1621;49.702;8.618;2023-06-14T14:30:49;4.27;;;2.83;;
3217;SDS011;1621;49.702;8.618;2023-06-14T14:33:15;3.37;;;2.77;;
3217;SDS011;1621;49.702;8.618;2023-06-14T14:35:42;3.97;;;2.80;;
3217;SDS011;1621;49.702;8.618;2023-06-14T14:38:09;6.03;;;2.63;;
3217;SDS011;1621;49.702;8.618;2023-06-14T14:40:35;3.90;;;3.17;;
3217;SDS011;1621;49.702;8.618;2023-06-14T14:43:03;5.40;;;2.77;;
3217;SDS011;1621;49.702;8.618;2023-06-14T14:45:30;3.73;;;2.43;;
3217;SDS011;1621;49.702;8.618;2023-06-14T14:47:56;3.00;;;2.53;;
3217;SDS011;1621;49.702;8.618;2023-06-14T14:50:22;4.53;;;2.83;;
3217;SDS011;1621;49.702;8.618;2023-06-14T14:52:48;3.27;;;2.97;;
3217;SDS011;1621;49.702;8.618;2023-06-14T14:55:15;3.53;;;2.90;;
3217;SDS011;1621;49.702;8.618;2023-06-14T14:57:41;3.53;;;2.60;;
3217;SDS011;1621;49.702;8.618;2023-06-14T15:00:09;5.13;;;2.90;;
3217;SDS011;1621;49.702;8.618;2023-06-14T15:02:35;4.50;;;3.23;;
3217;SDS011;1621;49.702;8.618;2023-06-14T15:05:02;4.80;;;3.27;;
3217;SDS011;1621;49.702;8.618;2023-06-14T15:07:28;5.30;;;3.03;;
3217;SDS011;1621;49.702;8.618;2023-06-14T15:09:55;4.00;;;2.73;;
3217;SDS011;1621;49.702;8.618;2023-06-14T15:12:21;4.77;;;2.70;;
3217;SDS011;1621;49.702;8.618;2023-06-14T15:14:49;5.60;;;2.93;;